createdAt,value
2024-04-14T00:00:00.962Z,1.73
2024-04-14T00:02:27.762Z,1.98
2024-04-14T00:04:54.776Z,1.95
2024-04-14T00:07:23.154Z,1.83
2024-04-14T00:09:49.926Z,1.90
2024-04-14T00:12:16.775Z,1.77
2024-04-14T00:14:43.575Z,1.90
2024-04-14T00:17:10.372Z,2.30
2024-04-14T00:19:37.092Z,2.08
2024-04-14T00:22:04.303Z,1.90
2024-04-14T00:24:31.076Z,2.05
2024-04-14T00:26:57.898Z,2.17
2024-04-14T00:29:24.668Z,1.67
2024-04-14T00:31:51.460Z,2.15
2024-04-14T00:34:18.201Z,1.83
2024-04-14T00:36:45.039Z,2.00
2024-04-14T00:39:13.443Z,2.45
2024-04-14T00:41:41.151Z,1.98
2024-04-14T00:44:07.903Z,2.22
2024-04-14T00:46:34.741Z,1.98
2024-04-14T00:49:03.613Z,2.25
2024-04-14T00:51:30.718Z,1.88
2024-04-14T00:53:57.846Z,2.25
2024-04-14T00:56:24.965Z,1.80
2024-04-14T00:58:52.065Z,2.22
2024-04-14T01:01:20.913Z,2.60
2024-04-14T01:03:48.242Z,2.75
2024-04-14T01:06:15.090Z,2.40
2024-04-14T01:08:41.963Z,2.65
2024-04-14T01:11:09.017Z,2.60
2024-04-14T01:13:35.779Z,2.05
2024-04-14T01:16:02.652Z,2.00
2024-04-14T01:18:29.737Z,2.00
2024-04-14T01:20:56.527Z,1.98
2024-04-14T01:23:24.085Z,2.10
2024-04-14T01:25:50.842Z,2.05
2024-04-14T01:28:18.220Z,1.98
2024-04-14T01:30:45.330Z,1.90
2024-04-14T01:33:12.192Z,2.00
2024-04-14T01:35:39.424Z,2.00
2024-04-14T01:38:16.061Z,2.67
2024-04-14T01:40:48.943Z,2.20
2024-04-14T01:43:15.882Z,2.60
2024-04-14T01:45:42.599Z,2.70
2024-04-14T01:48:10.627Z,2.80
2024-04-14T01:50:38.766Z,3.03
2024-04-14T01:53:05.617Z,2.38
2024-04-14T01:55:32.371Z,2.40
2024-04-14T01:58:00.764Z,2.60
2024-04-14T02:00:28.107Z,2.40
2024-04-14T02:02:57.517Z,2.30
2024-04-14T02:05:24.495Z,2.13
2024-04-14T02:07:51.231Z,2.40
2024-04-14T02:10:18.027Z,2.03
2024-04-14T02:12:44.909Z,2.72
2024-04-14T02:15:11.804Z,2.30
2024-04-14T02:17:38.879Z,1.90
2024-04-14T02:20:06.201Z,2.00
2024-04-14T02:22:32.947Z,2.40
2024-04-14T02:24:59.794Z,2.33
2024-04-14T02:27:26.672Z,1.92
2024-04-14T02:29:53.442Z,2.30
2024-04-14T02:32:20.314Z,2.28
2024-04-14T02:34:47.426Z,1.85
2024-04-14T02:37:14.237Z,2.00
2024-04-14T02:39:41.033Z,2.00
2024-04-14T02:42:07.842Z,1.85
2024-04-14T02:44:34.607Z,2.10
2024-04-14T02:47:01.419Z,2.30
2024-04-14T02:49:30.052Z,3.03
2024-04-14T02:51:57.603Z,3.28
2024-04-14T02:54:25.041Z,2.42
2024-04-14T02:56:52.091Z,3.17
2024-04-14T02:59:18.989Z,2.83
2024-04-14T03:01:47.207Z,2.75
2024-04-14T03:04:14.154Z,2.50
2024-04-14T03:06:41.084Z,3.00
2024-04-14T03:09:07.883Z,2.67
2024-04-14T03:11:34.725Z,2.38
2024-04-14T03:14:01.753Z,2.40
2024-04-14T03:16:28.642Z,2.40
2024-04-14T03:18:55.542Z,2.20
2024-04-14T03:21:24.423Z,2.30
2024-04-14T03:23:51.744Z,2.10
2024-04-14T03:26:18.736Z,2.40
2024-04-14T03:28:45.475Z,1.98
2024-04-14T03:31:12.545Z,2.50
2024-04-14T03:33:39.508Z,2.78
2024-04-14T03:36:08.191Z,2.40
2024-04-14T03:38:35.736Z,2.30
2024-04-14T03:41:04.138Z,2.47
2024-04-14T03:43:31.071Z,2.30
2024-04-14T03:45:58.362Z,2.40
2024-04-14T03:48:25.712Z,2.63
2024-04-14T03:50:52.615Z,2.75
2024-04-14T03:53:19.362Z,2.78
2024-04-14T03:55:46.212Z,3.00
2024-04-14T03:58:12.991Z,2.60
2024-04-14T04:00:40.049Z,2.28
2024-04-14T04:03:07.592Z,2.42
2024-04-14T04:05:34.449Z,2.33
2024-04-14T04:08:02.607Z,2.92
2024-04-14T04:10:30.710Z,2.53
2024-04-14T04:12:57.507Z,2.72
2024-04-14T04:15:24.365Z,2.78
2024-04-14T04:17:51.293Z,2.58
2024-04-14T04:20:18.085Z,2.35
2024-04-14T04:22:44.948Z,2.70
2024-04-14T04:25:14.591Z,2.38
2024-04-14T04:27:41.329Z,2.60
2024-04-14T04:30:08.682Z,2.65
2024-04-14T04:32:38.188Z,2.47
2024-04-14T04:35:06.519Z,2.30
2024-04-14T04:37:33.291Z,2.60
2024-04-14T04:40:00.151Z,2.47
2024-04-14T04:42:27.005Z,2.60
2024-04-14T04:44:53.733Z,2.63
2024-04-14T04:47:20.705Z,2.60
2024-04-14T04:49:49.401Z,2.45
2024-04-14T04:52:16.169Z,2.50
2024-04-14T04:54:42.999Z,2.55
2024-04-14T04:57:09.793Z,2.50
2024-04-14T04:59:36.576Z,2.97
2024-04-14T05:02:03.353Z,2.72
2024-04-14T05:04:30.406Z,2.60
2024-04-14T05:09:41.322Z,2.38
2024-04-14T05:12:08.121Z,2.70
2024-04-14T05:14:34.883Z,2.22
2024-04-14T05:17:01.677Z,2.85
2024-04-14T05:19:28.521Z,2.40
2024-04-14T05:21:55.433Z,2.75
2024-04-14T05:24:22.519Z,2.30
2024-04-14T05:26:49.419Z,2.40
2024-04-14T05:29:16.169Z,2.70
2024-04-14T05:31:42.984Z,2.13
2024-04-14T05:34:09.752Z,2.70
2024-04-14T05:36:36.664Z,2.33
2024-04-14T05:39:03.536Z,2.70
2024-04-14T05:41:31.549Z,3.00
2024-04-14T05:43:58.276Z,2.67
2024-04-14T05:46:25.069Z,2.70
2024-04-14T05:48:51.911Z,2.78
2024-04-14T05:51:38.521Z,2.70
2024-04-14T05:54:05.434Z,2.33
2024-04-14T05:56:32.154Z,2.78
2024-04-14T05:58:58.909Z,2.85
2024-04-14T06:01:25.727Z,2.63
2024-04-14T06:03:52.567Z,2.78
2024-04-14T06:06:19.309Z,2.72
2024-04-14T06:08:46.079Z,3.00
2024-04-14T06:11:12.938Z,2.92
2024-04-14T06:13:39.848Z,3.08
2024-04-14T06:16:06.974Z,2.38
2024-04-14T06:18:34.982Z,2.33
2024-04-14T06:21:01.799Z,2.65
2024-04-14T06:23:28.527Z,2.70
2024-04-14T06:25:55.991Z,2.45
2024-04-14T06:28:22.760Z,2.17
2024-04-14T06:30:49.654Z,2.50
2024-04-14T06:33:16.604Z,2.42
2024-04-14T06:35:43.349Z,3.05
2024-04-14T06:38:10.564Z,2.33
2024-04-14T06:40:37.300Z,2.95
2024-04-14T06:43:04.663Z,2.47
2024-04-14T06:45:31.633Z,2.58
2024-04-14T06:47:58.538Z,2.50
2024-04-14T06:50:25.492Z,2.97
2024-04-14T06:52:52.285Z,2.58
2024-04-14T06:55:20.328Z,2.58
2024-04-14T06:57:47.414Z,3.03
2024-04-14T07:00:14.473Z,2.40
2024-04-14T07:02:41.331Z,2.40
2024-04-14T07:05:08.134Z,2.67
2024-04-14T07:07:36.805Z,2.30
2024-04-14T07:10:04.048Z,2.20
2024-04-14T07:12:30.882Z,2.30
2024-04-14T07:14:57.828Z,2.17
2024-04-14T07:17:24.584Z,2.45
2024-04-14T07:19:51.384Z,2.35
2024-04-14T07:22:18.177Z,2.22
2024-04-14T07:24:45.110Z,2.20
2024-04-14T07:27:11.980Z,2.20
2024-04-14T07:29:39.921Z,2.00
2024-04-14T07:32:07.620Z,2.42
2024-04-14T07:34:34.449Z,2.38
2024-04-14T07:37:04.105Z,2.25
2024-04-14T07:39:32.432Z,2.28
2024-04-14T07:42:03.482Z,2.33
2024-04-14T07:44:30.300Z,2.50
2024-04-14T07:47:00.127Z,2.17
2024-04-14T07:49:26.977Z,2.30
2024-04-14T07:51:53.894Z,2.08
2024-04-14T07:54:20.647Z,2.10
2024-04-14T07:56:47.425Z,2.50
2024-04-14T07:59:14.208Z,2.72
2024-04-14T08:01:41.024Z,2.20
2024-04-14T08:04:08.134Z,2.60
2024-04-14T08:06:35.154Z,2.47
2024-04-14T08:09:01.983Z,3.00
2024-04-14T08:11:28.803Z,2.53
2024-04-14T08:13:56.926Z,2.13
2024-04-14T08:16:23.753Z,2.83
2024-04-14T08:18:50.616Z,1.95
2024-04-14T08:21:17.497Z,2.40
2024-04-14T08:23:44.243Z,2.20
2024-04-14T08:26:10.994Z,2.03
2024-04-14T08:28:37.768Z,2.67
2024-04-14T08:31:04.833Z,2.95
2024-04-14T08:33:31.684Z,2.33
2024-04-14T08:35:58.501Z,2.60
2024-04-14T08:38:25.425Z,2.28
2024-04-14T08:40:53.703Z,2.33
2024-04-14T08:43:21.189Z,2.42
2024-04-14T08:45:49.077Z,2.15
2024-04-14T08:48:18.114Z,2.47
2024-04-14T08:50:46.074Z,2.10
2024-04-14T08:53:15.888Z,2.20
2024-04-14T08:55:48.005Z,2.78
2024-04-14T08:58:16.886Z,2.40
2024-04-14T09:00:48.000Z,2.30
2024-04-14T09:03:14.943Z,2.30
2024-04-14T09:05:43.881Z,2.88
2024-04-14T09:08:10.671Z,2.42
2024-04-14T09:10:37.484Z,2.63
2024-04-14T09:13:08.932Z,2.47
2024-04-14T09:15:41.694Z,2.55
2024-04-14T09:18:08.609Z,2.22
2024-04-14T09:20:35.388Z,2.08
2024-04-14T09:23:03.200Z,2.30
2024-04-14T09:25:30.290Z,1.70
2024-04-14T09:28:04.623Z,2.60
2024-04-14T09:30:31.551Z,2.05
2024-04-14T09:32:58.914Z,2.05
2024-04-14T09:35:26.445Z,2.08
2024-04-14T09:37:53.840Z,1.90
2024-04-14T09:40:20.754Z,2.22
2024-04-14T09:42:47.819Z,2.03
2024-04-14T09:45:16.898Z,1.85
2024-04-14T09:47:45.135Z,1.92
2024-04-14T09:50:12.139Z,2.10
2024-04-14T09:52:43.342Z,2.00
2024-04-14T09:55:11.044Z,2.00
2024-04-14T09:57:38.001Z,1.75
2024-04-14T10:00:05.956Z,2.00
2024-04-14T10:02:36.411Z,2.08
2024-04-14T10:05:05.022Z,1.90
2024-04-14T10:07:32.002Z,2.10
2024-04-14T10:10:00.567Z,2.30
2024-04-14T10:12:27.550Z,1.85
2024-04-14T10:14:55.773Z,2.35
2024-04-14T10:17:22.740Z,1.73
2024-04-14T10:19:56.442Z,1.73
2024-04-14T10:22:36.155Z,1.92
2024-04-14T10:25:03.474Z,1.75
2024-04-14T10:27:35.765Z,2.03
2024-04-14T10:30:05.408Z,1.88
2024-04-14T10:32:32.237Z,2.03
2024-04-14T10:34:59.113Z,2.22
2024-04-14T10:37:27.492Z,1.48
2024-04-14T10:39:56.098Z,1.67
2024-04-14T10:42:25.984Z,1.50
2024-04-14T10:44:53.368Z,2.08
2024-04-14T10:47:20.634Z,1.92
2024-04-14T10:49:51.332Z,1.80
2024-04-14T10:52:18.574Z,2.05
2024-04-14T10:54:45.969Z,1.95
2024-04-14T10:57:13.335Z,1.40
2024-04-14T10:59:40.337Z,1.90
2024-04-14T11:02:09.178Z,1.38
2024-04-14T11:04:37.238Z,1.60
2024-04-14T11:07:04.739Z,1.45
2024-04-14T11:09:32.973Z,2.10
2024-04-14T11:12:00.640Z,1.88
2024-04-14T11:14:27.649Z,1.67
2024-04-14T11:16:54.657Z,1.63
2024-04-14T11:19:22.067Z,1.63
2024-04-14T11:21:50.186Z,1.45
2024-04-14T11:24:17.096Z,1.30
2024-04-14T11:26:43.954Z,1.60
2024-04-14T11:29:11.389Z,1.80
2024-04-14T11:31:38.677Z,1.85
2024-04-14T11:34:12.127Z,1.92
2024-04-14T11:36:42.485Z,1.60
2024-04-14T11:39:09.588Z,1.80
2024-04-14T11:41:36.667Z,1.50
2024-04-14T11:44:03.531Z,1.90
2024-04-14T11:46:30.485Z,1.42
2024-04-14T11:48:57.334Z,1.90
2024-04-14T11:51:24.321Z,1.60
2024-04-14T11:53:51.158Z,1.88
2024-04-14T11:56:17.995Z,2.13
2024-04-14T11:58:44.760Z,4.18
2024-04-14T12:01:11.911Z,6.72
2024-04-14T12:03:38.751Z,1.88
2024-04-14T12:06:08.412Z,1.58
2024-04-14T12:08:36.434Z,2.50
2024-04-14T12:11:03.274Z,1.65
2024-04-14T12:13:30.752Z,1.80
2024-04-14T12:15:58.303Z,1.85
2024-04-14T12:18:25.225Z,2.00
2024-04-14T12:20:52.548Z,1.58
2024-04-14T12:23:19.363Z,1.75
2024-04-14T12:25:46.266Z,1.50
2024-04-14T12:28:13.204Z,1.70
2024-04-14T12:30:46.022Z,1.70
2024-04-14T12:33:18.251Z,1.75
2024-04-14T12:35:45.074Z,1.35
2024-04-14T12:38:11.864Z,1.67
2024-04-14T12:40:38.830Z,1.98
2024-04-14T12:43:05.677Z,1.80
2024-04-14T12:45:33.991Z,1.65
2024-04-14T12:48:01.343Z,1.50
2024-04-14T12:50:32.945Z,1.50
2024-04-14T12:53:07.121Z,1.63
2024-04-14T12:55:34.071Z,1.83
2024-04-14T12:58:00.934Z,1.60
2024-04-14T13:00:27.763Z,1.92
2024-04-14T13:02:54.508Z,1.55
2024-04-14T13:05:21.280Z,5.20
2024-04-14T13:07:48.119Z,1.90
2024-04-14T13:10:14.970Z,1.58
2024-04-14T13:12:41.812Z,1.40
2024-04-14T13:15:11.441Z,3.47
2024-04-14T13:17:39.397Z,3.10
2024-04-14T13:20:11.217Z,2.92
2024-04-14T13:22:38.813Z,1.63
2024-04-14T13:25:08.503Z,1.73
2024-04-14T13:27:35.369Z,1.50
2024-04-14T13:30:02.280Z,1.90
2024-04-14T13:32:29.111Z,1.73
2024-04-14T13:34:56.004Z,1.67
2024-04-14T13:37:22.820Z,1.85
2024-04-14T13:39:49.641Z,1.48
2024-04-14T13:42:17.030Z,1.70
2024-04-14T13:44:44.447Z,1.80
2024-04-14T13:47:11.466Z,1.85
2024-04-14T13:49:38.505Z,1.80
2024-04-14T13:52:05.684Z,2.75
2024-04-14T13:54:33.767Z,2.25
2024-04-14T13:57:01.189Z,2.17
2024-04-14T13:59:28.008Z,2.00
2024-04-14T14:01:54.976Z,1.55
2024-04-14T14:04:21.936Z,1.80
2024-04-14T14:06:48.774Z,1.70
2024-04-14T14:09:16.188Z,1.90
2024-04-14T14:11:43.025Z,1.63
2024-04-14T14:14:09.911Z,2.28
2024-04-14T14:16:36.954Z,2.05
2024-04-14T14:19:04.123Z,1.75
2024-04-14T14:21:30.968Z,1.85
2024-04-14T14:23:57.915Z,1.60
2024-04-14T14:26:24.930Z,2.03
2024-04-14T14:28:51.875Z,1.48
2024-04-14T14:31:18.719Z,1.70
2024-04-14T14:34:04.072Z,1.58
2024-04-14T14:36:31.724Z,1.50
2024-04-14T14:38:59.117Z,1.40
2024-04-14T14:41:27.090Z,1.65
2024-04-14T14:43:55.047Z,1.33
2024-04-14T14:46:24.819Z,1.58
2024-04-14T14:48:54.212Z,1.38
2024-04-14T14:51:21.512Z,1.50
2024-04-14T14:53:48.687Z,1.27
2024-04-14T14:56:15.415Z,1.60
2024-04-14T14:58:42.201Z,1.50
2024-04-14T15:01:09.094Z,1.80
2024-04-14T15:03:37.647Z,2.25
2024-04-14T15:06:04.834Z,2.10
2024-04-14T15:08:31.635Z,2.00
2024-04-14T15:10:58.458Z,2.42
2024-04-14T15:13:25.352Z,1.80
2024-04-14T15:15:56.674Z,1.80
2024-04-14T15:18:24.730Z,2.35
2024-04-14T15:20:51.553Z,2.03
2024-04-14T15:23:18.340Z,1.90
2024-04-14T15:25:45.170Z,2.03
2024-04-14T15:28:18.811Z,1.88
2024-04-14T15:30:49.826Z,2.00
2024-04-14T15:33:17.138Z,1.88
2024-04-14T15:35:44.798Z,2.22
2024-04-14T15:38:12.876Z,2.28
2024-04-14T15:40:39.682Z,2.53
2024-04-14T15:43:06.462Z,2.80
2024-04-14T15:45:33.438Z,2.75
2024-04-14T15:48:00.999Z,2.67
2024-04-14T15:50:27.921Z,2.85
2024-04-14T15:52:54.664Z,2.30
2024-04-14T15:55:21.415Z,2.08
2024-04-14T15:57:48.535Z,1.73
2024-04-14T16:00:15.409Z,1.98
2024-04-14T16:02:42.717Z,2.20
2024-04-14T16:05:09.771Z,2.22
2024-04-14T16:07:36.703Z,2.75
2024-04-14T16:10:04.094Z,2.15
2024-04-14T16:12:31.110Z,1.90
2024-04-14T16:14:58.076Z,2.00
2024-04-14T16:17:24.841Z,2.05
2024-04-14T16:19:51.687Z,2.45
2024-04-14T16:22:18.550Z,2.47
2024-04-14T16:24:45.493Z,1.80
2024-04-14T16:27:14.309Z,2.20
2024-04-14T16:29:41.145Z,2.33
2024-04-14T16:32:07.921Z,1.73
2024-04-14T16:34:34.834Z,2.40
2024-04-14T16:37:01.604Z,2.15
2024-04-14T16:39:28.358Z,2.72
2024-04-14T16:41:55.278Z,2.40
2024-04-14T16:44:22.078Z,2.30
2024-04-14T16:46:48.986Z,2.05
2024-04-14T16:49:15.805Z,2.30
2024-04-14T16:51:44.148Z,2.08
2024-04-14T16:54:10.960Z,1.93
2024-04-14T16:56:37.720Z,2.00
2024-04-14T16:59:04.490Z,2.22
2024-04-14T17:01:31.332Z,2.15
2024-04-14T17:03:59.149Z,2.22
2024-04-14T17:06:25.961Z,1.63
2024-04-14T17:08:54.757Z,2.70
2024-04-14T17:11:21.564Z,1.73
2024-04-14T17:13:48.389Z,1.73
2024-04-14T17:16:15.247Z,1.90
2024-04-14T17:18:42.329Z,2.20
2024-04-14T17:21:10.036Z,1.90
2024-04-14T17:23:36.865Z,2.20
2024-04-14T17:26:03.949Z,2.08
2024-04-14T17:28:30.746Z,1.90
2024-04-14T17:30:58.084Z,2.20
2024-04-14T17:33:24.971Z,2.28
2024-04-14T17:35:51.834Z,1.75
2024-04-14T17:38:18.639Z,2.15
2024-04-14T17:40:45.430Z,1.98
2024-04-14T17:43:12.366Z,2.03
2024-04-14T17:45:39.250Z,2.42
2024-04-14T17:48:06.593Z,2.60
2024-04-14T17:50:33.710Z,1.73
2024-04-14T17:53:00.614Z,2.65
2024-04-14T17:55:27.431Z,2.45
2024-04-14T17:57:54.338Z,2.45
2024-04-14T18:00:21.165Z,2.25
2024-04-14T18:02:47.977Z,2.22
2024-04-14T18:05:14.834Z,1.98
2024-04-14T18:07:41.593Z,1.73
2024-04-14T18:10:08.581Z,2.20
2024-04-14T18:12:35.701Z,1.80
2024-04-14T18:15:02.544Z,1.80
2024-04-14T18:17:29.427Z,1.85
2024-04-14T18:19:56.358Z,2.55
2024-04-14T18:22:23.304Z,2.78
2024-04-14T18:24:51.233Z,2.22
2024-04-14T18:27:18.290Z,2.45
2024-04-14T18:29:48.263Z,1.95
2024-04-14T18:32:15.155Z,2.20
2024-04-14T18:34:41.900Z,2.10
2024-04-14T18:37:08.972Z,2.65
2024-04-14T18:39:36.098Z,2.25
2024-04-14T18:42:03.002Z,2.35
2024-04-14T18:44:29.830Z,2.20
2024-04-14T18:46:57.563Z,2.20
2024-04-14T18:49:24.366Z,2.15
2024-04-14T18:51:51.368Z,2.45
2024-04-14T18:54:18.348Z,2.67
2024-04-14T18:56:46.915Z,2.42
2024-04-14T18:59:13.729Z,2.23
2024-04-14T19:01:40.685Z,2.10
2024-04-14T19:04:07.696Z,2.00
2024-04-14T19:06:34.574Z,2.05
2024-04-14T19:09:01.378Z,1.92
2024-04-14T19:11:28.212Z,2.15
2024-04-14T19:13:56.397Z,2.10
2024-04-14T19:16:25.160Z,2.45
2024-04-14T19:18:53.927Z,2.53
2024-04-14T19:21:20.719Z,2.60
2024-04-14T19:23:47.627Z,2.08
2024-04-14T19:26:14.749Z,1.98
2024-04-14T19:28:41.573Z,1.92
2024-04-14T19:31:08.455Z,1.60
2024-04-14T19:33:35.296Z,2.15
2024-04-14T19:36:02.321Z,1.95
2024-04-14T19:38:30.651Z,2.10
2024-04-14T19:40:58.087Z,2.15
2024-04-14T19:43:25.138Z,2.10
2024-04-14T19:45:52.653Z,1.80
2024-04-14T19:48:19.737Z,2.03
2024-04-14T19:50:46.650Z,1.95
2024-04-14T19:53:13.537Z,1.75
2024-04-14T19:55:41.305Z,2.78
2024-04-14T19:58:08.405Z,2.38
2024-04-14T20:00:36.294Z,3.15
2024-04-14T20:03:04.005Z,2.42
2024-04-14T20:05:30.826Z,2.08
2024-04-14T20:07:57.658Z,2.70
2024-04-14T20:10:25.220Z,2.30
2024-04-14T20:12:52.063Z,2.10
2024-04-14T20:15:21.236Z,2.30
2024-04-14T20:17:48.235Z,3.55
2024-04-14T20:20:15.162Z,3.05
2024-04-14T20:22:42.946Z,3.08
2024-04-14T20:25:09.922Z,2.30
2024-04-14T20:27:36.969Z,2.63
2024-04-14T20:30:04.983Z,2.65
2024-04-14T20:32:31.910Z,1.98
2024-04-14T20:34:58.808Z,2.53
2024-04-14T20:37:25.620Z,2.53
2024-04-14T20:39:52.434Z,2.30
2024-04-14T20:42:20.408Z,2.60
2024-04-14T20:44:47.381Z,2.88
2024-04-14T20:47:15.599Z,2.28
2024-04-14T20:49:43.463Z,2.60
2024-04-14T20:52:11.030Z,2.30
2024-04-14T20:54:37.884Z,2.03
2024-04-14T20:57:04.850Z,2.28
2024-04-14T20:59:31.649Z,2.65
2024-04-14T21:01:58.684Z,2.25
2024-04-14T21:04:30.295Z,3.10
2024-04-14T21:07:02.430Z,2.50
2024-04-14T21:09:29.202Z,2.40
2024-04-14T21:11:56.034Z,2.58
2024-04-14T21:14:22.771Z,3.50
2024-04-14T21:16:49.612Z,3.28
2024-04-14T21:19:16.474Z,2.80
2024-04-14T21:21:44.169Z,2.40
2024-04-14T21:24:10.902Z,2.60
2024-04-14T21:26:37.763Z,2.60
2024-04-14T21:29:04.532Z,2.30
2024-04-14T21:31:31.606Z,3.13
2024-04-14T21:33:58.452Z,2.60
2024-04-14T21:36:25.342Z,2.92
2024-04-14T21:38:52.312Z,2.95
2024-04-14T21:41:20.650Z,2.95
2024-04-14T21:43:47.474Z,3.00
2024-04-14T21:46:14.354Z,2.50
2024-04-14T21:48:41.350Z,2.88
2024-04-14T21:51:11.708Z,2.90
2024-04-14T21:53:40.774Z,3.33
2024-04-14T21:56:07.675Z,2.78
2024-04-14T21:58:36.538Z,2.10
2024-04-14T22:01:12.558Z,2.50
2024-04-14T22:03:39.771Z,3.33
2024-04-14T22:06:06.632Z,2.83
2024-04-14T22:08:33.415Z,2.50
2024-04-14T22:11:00.733Z,3.20
2024-04-14T22:13:30.143Z,2.50
2024-04-14T22:15:57.086Z,2.40
2024-04-14T22:18:24.143Z,2.90
2024-04-14T22:20:50.923Z,3.08
2024-04-14T22:23:17.795Z,2.58
2024-04-14T22:25:44.650Z,2.85
2024-04-14T22:28:12.101Z,2.53
2024-04-14T22:30:39.306Z,2.38
2024-04-14T22:33:08.329Z,2.60
2024-04-14T22:35:35.131Z,2.40
2024-04-14T22:38:02.656Z,2.28
2024-04-14T22:40:30.165Z,2.97
2024-04-14T22:42:57.658Z,3.08
2024-04-14T22:45:24.637Z,2.92
2024-04-14T22:47:51.760Z,3.05
2024-04-14T22:50:18.766Z,3.05
2024-04-14T22:52:45.580Z,3.33
2024-04-14T22:55:12.400Z,3.28
2024-04-14T22:57:39.293Z,3.22
2024-04-14T23:00:12.999Z,2.90
2024-04-14T23:02:40.081Z,4.03
2024-04-14T23:05:27.728Z,3.13
2024-04-14T23:07:54.545Z,2.72
2024-04-14T23:10:21.446Z,3.80
2024-04-14T23:12:48.283Z,3.72
2024-04-14T23:15:15.166Z,3.45
2024-04-14T23:17:42.058Z,3.50
2024-04-14T23:20:09.203Z,3.70
2024-04-14T23:22:35.926Z,3.42
2024-04-14T23:25:02.762Z,3.85
2024-04-14T23:27:29.540Z,3.85
2024-04-14T23:29:56.282Z,4.20
2024-04-14T23:32:23.177Z,3.85
2024-04-14T23:34:49.952Z,6.85
2024-04-14T23:37:16.806Z,4.20
2024-04-14T23:39:43.581Z,3.80
2024-04-14T23:42:10.363Z,3.70
2024-04-14T23:44:37.116Z,3.70
2024-04-14T23:47:04.104Z,3.58
2024-04-14T23:49:30.857Z,3.67
2024-04-14T23:51:57.725Z,3.63
2024-04-14T23:54:25.413Z,4.57
2024-04-14T23:56:55.159Z,3.75
2024-04-14T23:59:22.057Z,4.05
